Time;durP1;ratioP1;P1;durP2;ratioP2;P2;SDS_P1;SDS_P2;PMS_P1;PMS_P2;Temp;Humidity;BMP_temperature;BMP_pressure;BME280_temperature;BME280_humidity;BME280_pressure;Samples;Min_cycle;Max_cycle;Signal;HPM_P1;HPM_P2
2023/12/10 00:00:31;;;;;;;28.88;5.20;;;9.90;99.90;;;;;;5090366;28;20644;-70
2023/12/10 00:02:57;;;;;;;24.48;4.55;;;9.90;99.90;;;;;;5096781;28;20099;-70
2023/12/10 00:05:22;;;;;;;24.98;6.20;;;10.00;99.90;;;;;;5104999;28;20020;-70
2023/12/10 00:07:48;;;;;;;20.50;4.45;;;10.00;99.90;;;;;;5102971;28;20020;-73
2023/12/10 00:10:14;;;;;;;31.05;6.15;;;10.00;99.90;;;;;;5096448;28;20092;-73
2023/12/10 00:12:40;;;;;;;24.05;5.68;;;10.00;99.90;;;;;;5098734;28;20024;-73
2023/12/10 00:15:06;;;;;;;23.58;4.53;;;10.00;99.90;;;;;;5097924;28;20112;-73
2023/12/10 00:17:31;;;;;;;17.63;4.72;;;10.10;99.90;;;;;;5089650;28;20043;-74
2023/12/10 00:19:57;;;;;;;25.70;4.63;;;10.10;99.90;;;;;;5100454;28;20031;-74
2023/12/10 00:22:23;;;;;;;25.42;5.30;;;10.10;99.90;;;;;;5106551;28;20419;-74
2023/12/10 00:24:48;;;;;;;32.55;5.65;;;10.10;99.90;;;;;;5092281;28;20039;-73
2023/12/10 00:27:14;;;;;;;20.25;4.13;;;10.10;99.90;;;;;;5103322;28;20406;-73
2023/12/10 00:29:40;;;;;;;25.35;4.88;;;10.20;99.90;;;;;;5099383;28;20073;-73
2023/12/10 00:32:06;;;;;;;30.25;6.43;;;10.20;99.90;;;;;;5102506;28;20100;-74
2023/12/10 00:34:31;;;;;;;29.67;4.65;;;10.10;99.90;;;;;;5103849;28;20367;-74
2023/12/10 00:36:57;;;;;;;27.38;5.70;;;10.10;99.90;;;;;;5103659;28;20421;-74
2023/12/10 00:39:23;;;;;;;26.95;4.85;;;10.10;99.90;;;;;;5098894;28;20020;-74
2023/12/10 00:41:48;;;;;;;23.83;4.72;;;10.00;99.90;;;;;;5106040;28;20099;-74
2023/12/10 00:44:14;;;;;;;35.70;5.85;;;10.00;99.90;;;;;;5104050;28;20439;-74
2023/12/10 00:46:40;;;;;;;27.60;6.07;;;10.00;99.90;;;;;;5106848;28;20099;-74
2023/12/10 00:49:05;;;;;;;25.02;6.50;;;9.90;99.90;;;;;;5096074;28;20402;-74
2023/12/10 00:51:31;;;;;;;25.85;5.07;;;9.90;99.90;;;;;;5103820;28;20024;-74
2023/12/10 00:53:56;;;;;;;31.45;6.53;;;9.80;99.90;;;;;;5098514;28;20031;-74
2023/12/10 00:56:23;;;;;;;31.60;6.68;;;9.80;99.90;;;;;;5097909;28;20081;-74
2023/12/10 00:58:48;;;;;;;33.38;7.40;;;9.80;99.90;;;;;;5103407;28;20046;-74
2023/12/10 01:01:14;;;;;;;31.08;5.75;;;9.80;99.90;;;;;;5102011;28;20024;-73
2023/12/10 01:03:39;;;;;;;27.95;6.03;;;9.80;99.90;;;;;;5098895;28;20383;-74
2023/12/10 01:06:06;;;;;;;26.90;5.20;;;9.70;99.90;;;;;;5107820;28;20443;-74
2023/12/10 01:08:32;;;;;;;27.63;5.35;;;9.70;99.90;;;;;;5101449;28;20039;-74
2023/12/10 01:10:59;;;;;;;34.72;7.13;;;9.70;99.90;;;;;;5097666;28;20030;-73
2023/12/10 01:13:25;;;;;;;24.45;4.85;;;9.70;99.90;;;;;;5106763;28;20445;-74
2023/12/10 01:15:51;;;;;;;31.42;5.15;;;9.70;99.90;;;;;;5098647;28;20039;-70
2023/12/10 01:18:17;;;;;;;31.58;5.38;;;9.60;99.90;;;;;;5094227;28;20126;-70
2023/12/10 01:20:43;;;;;;;26.08;5.40;;;9.60;99.90;;;;;;5104277;28;20082;-70
2023/12/10 01:23:09;;;;;;;23.40;4.10;;;9.60;99.90;;;;;;5102637;28;20039;-70
2023/12/10 01:25:37;;;;;;;35.33;5.82;;;9.60;99.90;;;;;;5101053;28;20095;-70
2023/12/10 01:28:03;;;;;;;27.08;5.75;;;9.60;99.90;;;;;;5102535;28;20051;-70
2023/12/10 01:30:29;;;;;;;31.20;5.67;;;9.60;99.90;;;;;;5101247;28;20384;-70
2023/12/10 01:32:58;;;;;;;30.02;5.70;;;9.50;99.90;;;;;;5100517;28;20035;-70
2023/12/10 01:35:24;;;;;;;30.93;5.77;;;9.50;99.90;;;;;;5102380;28;20031;-70
2023/12/10 01:37:50;;;;;;;23.17;4.60;;;9.50;99.90;;;;;;5096351;28;20102;-71
2023/12/10 01:40:16;;;;;;;28.40;5.30;;;9.50;99.90;;;;;;5101398;28;20032;-71
2023/12/10 01:42:44;;;;;;;29.80;4.77;;;9.50;99.90;;;;;;5103717;28;20395;-71
2023/12/10 01:45:10;;;;;;;19.65;4.50;;;9.50;99.90;;;;;;5101282;28;20078;-70
2023/12/10 01:47:40;;;;;;;28.10;4.35;;;9.50;99.90;;;;;;5097332;28;20060;-70
2023/12/10 01:50:08;;;;;;;25.80;5.00;;;9.50;99.90;;;;;;5095943;28;20093;-70
2023/12/10 01:52:35;;;;;;;22.88;4.50;;;9.50;99.90;;;;;;5100793;28;20028;-70
2023/12/10 01:55:03;;;;;;;20.60;4.35;;;9.50;99.90;;;;;;5097580;28;20360;-70
2023/12/10 01:57:33;;;;;;;33.17;4.68;;;9.50;99.90;;;;;;5103067;28;20135;-70
2023/12/10 01:59:59;;;;;;;19.48;3.75;;;9.50;99.90;;;;;;5098991;28;20036;-71
2023/12/10 02:02:26;;;;;;;26.38;3.75;;;9.40;99.90;;;;;;5097896;28;20024;-71
2023/12/10 02:04:54;;;;;;;21.58;4.65;;;9.40;99.90;;;;;;5101922;28;20498;-71
2023/12/10 02:07:22;;;;;;;18.95;3.50;;;9.30;99.90;;;;;;5099354;28;20438;-70
2023/12/10 02:09:49;;;;;;;27.25;5.07;;;9.40;99.90;;;;;;5100981;28;20031;-70
2023/12/10 02:12:15;;;;;;;22.50;4.37;;;9.30;99.90;;;;;;5095492;28;20032;-70
2023/12/10 02:14:42;;;;;;;18.33;5.25;;;9.30;99.90;;;;;;5094138;28;20028;-74
2023/12/10 02:17:10;;;;;;;18.75;4.18;;;9.40;99.90;;;;;;5101037;28;20537;-74
2023/12/10 02:19:41;;;;;;;21.07;4.13;;;9.40;99.90;;;;;;5094687;28;20043;-74
2023/12/10 02:22:13;;;;;;;22.08;3.70;;;9.30;99.90;;;;;;5100244;28;20110;-74
2023/12/10 02:24:48;;;;;;;19.90;4.53;;;9.30;99.90;;;;;;5104535;28;20032;-74
2023/12/10 02:27:15;;;;;;;24.47;4.20;;;9.40;99.90;;;;;;5100443;28;20044;-74
2023/12/10 02:29:43;;;;;;;23.98;5.28;;;9.30;99.90;;;;;;5103458;28;20494;-75
2023/12/10 02:32:09;;;;;;;25.77;5.03;;;9.30;99.90;;;;;;5098446;28;20020;-74
2023/12/10 02:34:36;;;;;;;23.15;5.30;;;9.30;99.90;;;;;;5078827;28;20033;-74
2023/12/10 02:37:02;;;;;;;24.73;5.10;;;9.30;99.90;;;;;;5102470;28;20115;-74
2023/12/10 02:39:28;;;;;;;29.20;4.82;;;9.30;99.90;;;;;;5100474;28;20023;-74
2023/12/10 02:41:54;;;;;;;19.67;3.10;;;9.30;99.90;;;;;;5095561;28;20027;-74
2023/12/10 02:44:19;;;;;;;26.55;4.30;;;9.30;99.90;;;;;;5102846;28;20085;-75
2023/12/10 02:46:48;;;;;;;24.77;4.13;;;9.20;99.90;;;;;;5089970;28;20116;-75
2023/12/10 02:49:13;;;;;;;22.63;4.70;;;9.20;99.90;;;;;;5090434;28;20024;-75
2023/12/10 02:51:39;;;;;;;26.97;5.10;;;9.20;99.90;;;;;;5101975;28;20028;-75
2023/12/10 02:54:06;;;;;;;24.10;4.47;;;9.20;99.90;;;;;;5101477;28;20028;-75
2023/12/10 02:56:41;;;;;;;27.50;5.60;;;9.20;99.90;;;;;;5098921;28;20031;-75
2023/12/10 02:59:13;;;;;;;18.23;4.17;;;9.10;99.90;;;;;;5095171;28;20032;-76
2023/12/10 03:02:01;;;;;;;22.37;4.43;;;9.00;99.90;;;;;;5106280;27;20450;-75
2023/12/10 03:04:31;;;;;;;20.77;4.60;;;9.10;99.90;;;;;;5102613;28;20028;-75
2023/12/10 03:07:03;;;;;;;23.30;5.73;;;9.00;99.90;;;;;;5096939;28;20046;-75
2023/12/10 03:09:32;;;;;;;25.27;4.30;;;9.00;99.90;;;;;;5104065;28;20110;-75
2023/12/10 03:12:01;;;;;;;29.73;5.87;;;9.00;99.90;;;;;;5099092;28;20445;-75
2023/12/10 03:14:31;;;;;;;26.30;5.13;;;9.00;99.90;;;;;;5104378;28;20023;-76
2023/12/10 03:16:57;;;;;;;29.40;5.53;;;9.00;99.90;;;;;;5093087;28;20045;-71
2023/12/10 03:19:23;;;;;;;30.33;6.10;;;8.90;99.90;;;;;;5095401;28;20475;-71
2023/12/10 03:21:48;;;;;;;22.03;4.33;;;8.90;99.90;;;;;;5093872;28;20027;-71
2023/12/10 03:24:14;;;;;;;20.47;4.27;;;8.90;99.90;;;;;;5096552;28;20111;-71
2023/12/10 03:26:39;;;;;;;26.98;5.28;;;8.90;99.90;;;;;;5099443;28;20027;-71
2023/12/10 03:29:05;;;;;;;32.80;7.30;;;8.90;99.90;;;;;;5096643;28;20047;-71
2023/12/10 03:31:31;;;;;;;25.60;5.80;;;8.90;99.90;;;;;;5098249;28;20079;-71
2023/12/10 03:33:56;;;;;;;21.30;5.00;;;8.90;99.90;;;;;;5099924;28;20110;-71
2023/12/10 03:36:22;;;;;;;27.67;4.47;;;8.90;99.90;;;;;;5096723;28;20032;-71
2023/12/10 03:38:48;;;;;;;18.63;4.17;;;8.90;99.90;;;;;;5099243;28;20024;-71
2023/12/10 03:41:13;;;;;;;25.00;4.03;;;9.00;99.90;;;;;;5100145;28;20024;-71
2023/12/10 03:43:39;;;;;;;22.58;4.03;;;9.00;99.90;;;;;;5099047;28;20020;-71
2023/12/10 03:46:05;;;;;;;29.77;6.53;;;9.00;99.90;;;;;;5096386;28;20019;-71
2023/12/10 03:48:30;;;;;;;20.53;3.87;;;9.00;99.90;;;;;;5093825;28;20032;-71
2023/12/10 03:50:56;;;;;;;31.63;4.63;;;9.00;99.90;;;;;;5097886;28;20054;-71
2023/12/10 03:53:22;;;;;;;24.67;4.63;;;9.00;99.90;;;;;;5099982;28;20027;-71
2023/12/10 03:55:48;;;;;;;26.50;5.45;;;9.00;99.90;;;;;;5090872;28;20016;-71
2023/12/10 03:58:13;;;;;;;28.00;4.77;;;9.10;99.90;;;;;;5098273;28;20384;-71
2023/12/10 04:00:39;;;;;;;31.40;5.23;;;9.00;99.90;;;;;;5102337;28;20024;-71
2023/12/10 04:03:05;;;;;;;33.33;6.00;;;9.00;99.90;;;;;;5093099;28;20032;-71
2023/12/10 04:05:31;;;;;;;26.30;4.10;;;9.00;99.90;;;;;;5098694;28;20169;-71
2023/12/10 04:07:56;;;;;;;27.45;6.38;;;9.00;99.90;;;;;;5097377;28;20031;-71
2023/12/10 04:10:22;;;;;;;28.70;4.87;;;9.10;99.90;;;;;;5092313;28;20478;-71
2023/12/10 04:12:47;;;;;;;33.03;6.00;;;9.10;99.90;;;;;;5098242;28;20047;-71
2023/12/10 04:15:13;;;;;;;34.90;7.07;;;9.00;99.90;;;;;;5099332;28;20111;-70
2023/12/10 04:17:39;;;;;;;27.43;6.80;;;9.00;99.90;;;;;;5090423;28;20036;-71
2023/12/10 04:20:06;;;;;;;28.90;6.13;;;9.00;99.90;;;;;;5097817;28;20089;-71
2023/12/10 04:22:32;;;;;;;29.13;4.80;;;9.00;99.90;;;;;;5098495;28;20024;-71
2023/12/10 04:24:57;;;;;;;21.83;5.37;;;9.00;99.90;;;;;;5094552;28;20028;-71
2023/12/10 04:27:23;;;;;;;31.60;5.07;;;9.00;99.90;;;;;;5095615;28;20035;-71
2023/12/10 04:29:50;;;;;;;26.97;3.87;;;9.00;99.90;;;;;;5091674;28;20078;-71
2023/12/10 04:32:16;;;;;;;33.47;5.40;;;9.00;99.90;;;;;;5087176;28;20115;-70
2023/12/10 04:34:42;;;;;;;27.47;6.70;;;9.00;99.90;;;;;;5101750;28;20030;-71
2023/12/10 04:37:08;;;;;;;27.53;4.27;;;9.00;99.90;;;;;;5097895;28;20036;-71
2023/12/10 04:39:33;;;;;;;24.73;5.10;;;9.10;99.90;;;;;;5095749;28;20124;-70
2023/12/10 04:41:59;;;;;;;31.80;4.60;;;9.10;99.90;;;;;;5100994;28;20036;-70
2023/12/10 04:44:24;;;;;;;27.57;5.93;;;9.10;99.90;;;;;;5101390;28;20082;-70
2023/12/10 04:46:51;;;;;;;27.00;5.40;;;9.10;99.90;;;;;;5091646;28;20025;-70
2023/12/10 04:49:17;;;;;;;30.65;6.57;;;9.10;99.90;;;;;;5094568;28;20028;-70
2023/12/10 04:51:42;;;;;;;34.25;5.35;;;9.10;99.90;;;;;;5101159;28;20031;-71
2023/12/10 04:54:08;;;;;;;26.65;7.10;;;9.20;99.90;;;;;;5102138;28;20493;-71
2023/12/10 04:56:33;;;;;;;23.87;5.07;;;9.20;99.90;;;;;;5103772;28;20024;-70
2023/12/10 04:58:59;;;;;;;31.53;5.30;;;9.30;99.90;;;;;;5099586;28;20032;-70
2023/12/10 05:01:25;;;;;;;32.87;5.10;;;9.30;99.90;;;;;;5097157;28;20372;-71
2023/12/10 05:03:51;;;;;;;25.43;6.37;;;9.30;99.90;;;;;;5103125;28;20501;-71
2023/12/10 05:06:16;;;;;;;29.43;5.27;;;9.30;99.90;;;;;;5099912;28;20056;-71
2023/12/10 05:08:42;;;;;;;23.50;6.17;;;9.30;99.90;;;;;;5100302;28;20453;-71
2023/12/10 05:11:08;;;;;;;24.45;4.30;;;9.30;99.90;;;;;;5101542;28;20053;-71
2023/12/10 05:13:34;;;;;;;24.20;4.60;;;9.30;99.90;;;;;;5100144;28;20113;-71
2023/12/10 05:15:59;;;;;;;19.45;4.85;;;9.30;99.90;;;;;;5102074;28;20028;-70
2023/12/10 05:18:25;;;;;;;22.40;4.82;;;9.40;99.90;;;;;;5103052;28;20502;-71
2023/12/10 05:20:51;;;;;;;23.80;4.78;;;9.40;99.90;;;;;;5096232;28;20050;-71
2023/12/10 05:23:16;;;;;;;28.63;5.10;;;9.40;99.90;;;;;;5101710;28;20032;-71
2023/12/10 05:25:42;;;;;;;32.50;4.90;;;9.40;99.90;;;;;;5099206;28;20020;-71
2023/12/10 05:28:07;;;;;;;25.93;5.27;;;9.40;99.90;;;;;;5098055;28;20115;-70
2023/12/10 05:30:33;;;;;;;22.70;4.07;;;9.40;99.90;;;;;;5101536;28;20384;-71
2023/12/10 05:32:58;;;;;;;23.38;3.90;;;9.50;99.90;;;;;;5096954;28;20067;-71
2023/12/10 05:35:24;;;;;;;26.33;5.93;;;9.50;99.90;;;;;;5102205;28;20182;-71
2023/12/10 05:37:50;;;;;;;28.93;3.97;;;9.50;99.90;;;;;;5100779;28;20036;-71
2023/12/10 05:40:15;;;;;;;28.05;5.05;;;9.50;99.90;;;;;;5087946;28;20039;-71
2023/12/10 05:42:41;;;;;;;25.53;4.40;;;9.50;99.90;;;;;;5089586;28;20121;-71
2023/12/10 05:45:07;;;;;;;27.53;5.13;;;9.50;99.90;;;;;;5102033;28;20027;-71
2023/12/10 05:47:33;;;;;;;41.20;6.03;;;9.50;99.90;;;;;;5097625;28;20043;-71
2023/12/10 05:49:58;;;;;;;21.73;5.17;;;9.50;99.90;;;;;;5101445;28;20522;-71
2023/12/10 05:52:24;;;;;;;22.38;4.40;;;9.50;99.90;;;;;;5102973;28;20058;-71
2023/12/10 05:54:50;;;;;;;21.17;4.40;;;9.60;99.90;;;;;;5100057;28;20080;-71
2023/12/10 05:57:16;;;;;;;26.63;4.63;;;9.50;99.90;;;;;;5102178;28;20118;-71
2023/12/10 05:59:41;;;;;;;19.80;3.97;;;9.50;99.90;;;;;;5101719;28;20077;-71
2023/12/10 06:02:07;;;;;;;27.00;5.17;;;9.50;99.90;;;;;;5085709;28;20028;-71
2023/12/10 06:04:33;;;;;;;24.98;5.30;;;9.60;99.90;;;;;;5100409;28;20023;-71
2023/12/10 06:06:58;;;;;;;27.23;5.40;;;9.50;99.90;;;;;;5097667;28;20027;-70
2023/12/10 06:09:24;;;;;;;27.60;6.90;;;9.60;99.90;;;;;;5098880;28;20020;-70
2023/12/10 06:11:50;;;;;;;20.90;5.20;;;9.60;99.90;;;;;;5100649;28;20115;-70
2023/12/10 06:14:16;;;;;;;30.27;5.37;;;9.60;99.90;;;;;;5100066;28;20032;-71
2023/12/10 06:16:41;;;;;;;29.70;6.60;;;9.60;99.90;;;;;;5099639;28;20023;-70
2023/12/10 06:19:07;;;;;;;23.50;5.20;;;9.60;99.90;;;;;;5101540;28;20115;-70
2023/12/10 06:21:33;;;;;;;23.88;4.43;;;9.60;99.90;;;;;;5096199;28;20502;-70
2023/12/10 06:23:59;;;;;;;23.53;4.57;;;9.60;99.90;;;;;;5100775;28;20024;-70
2023/12/10 06:26:25;;;;;;;26.10;4.40;;;9.70;99.90;;;;;;5095212;28;20085;-71
2023/12/10 06:28:50;;;;;;;31.27;6.30;;;9.60;99.90;;;;;;5100322;28;20395;-71
2023/12/10 06:31:16;;;;;;;28.10;5.72;;;9.60;99.90;;;;;;5091798;28;20039;-71
2023/12/10 06:33:43;;;;;;;27.63;3.95;;;9.60;99.90;;;;;;5096176;28;20096;-70
2023/12/10 06:36:09;;;;;;;25.88;4.38;;;9.60;99.90;;;;;;5094881;28;20423;-70
2023/12/10 06:38:36;;;;;;;30.30;5.27;;;9.60;99.90;;;;;;5099469;28;20055;-70
2023/12/10 06:41:01;;;;;;;25.83;4.97;;;9.60;99.90;;;;;;5097887;28;20024;-70
2023/12/10 06:43:28;;;;;;;22.13;4.68;;;9.50;99.90;;;;;;5100794;28;20475;-70
2023/12/10 06:45:56;;;;;;;32.67;5.90;;;9.50;99.90;;;;;;5100646;28;20588;-71
2023/12/10 06:48:22;;;;;;;25.15;4.70;;;9.50;99.90;;;;;;5099271;28;20024;-71
2023/12/10 06:50:47;;;;;;;21.45;5.78;;;9.50;99.90;;;;;;5099503;28;20033;-70
2023/12/10 06:53:13;;;;;;;21.02;4.63;;;9.60;99.90;;;;;;5101049;28;20127;-71
2023/12/10 06:55:39;;;;;;;30.95;4.68;;;9.60;99.90;;;;;;5098387;28;20072;-70
2023/12/10 06:58:04;;;;;;;26.77;4.32;;;9.60;99.90;;;;;;5099919;28;20499;-70
2023/12/10 07:00:31;;;;;;;24.17;4.65;;;9.60;99.90;;;;;;5098614;28;20869;-75
2023/12/10 07:02:56;;;;;;;24.38;4.35;;;9.60;99.90;;;;;;5095521;28;20024;-74
2023/12/10 07:05:22;;;;;;;25.87;4.77;;;9.70;99.90;;;;;;5099387;28;20103;-74
2023/12/10 07:07:47;;;;;;;20.45;3.65;;;9.70;99.90;;;;;;5084030;28;20028;-74
2023/12/10 07:10:14;;;;;;;19.52;5.10;;;9.70;99.90;;;;;;5098827;28;20059;-75
2023/12/10 07:12:39;;;;;;;23.33;4.88;;;9.70;99.90;;;;;;5099966;28;20498;-75
2023/12/10 07:15:05;;;;;;;31.88;6.57;;;9.80;99.90;;;;;;5097609;28;20103;-75
2023/12/10 07:17:31;;;;;;;22.88;5.32;;;9.80;99.90;;;;;;5096477;28;20111;-75
2023/12/10 07:19:57;;;;;;;18.92;4.93;;;9.80;99.90;;;;;;5096769;28;20159;-75
2023/12/10 07:22:22;;;;;;;21.77;6.15;;;9.80;99.90;;;;;;5099518;28;20027;-74
2023/12/10 07:24:48;;;;;;;28.00;6.13;;;9.80;99.90;;;;;;5099275;28;20027;-74
2023/12/10 07:27:13;;;;;;;23.63;4.85;;;9.80;99.90;;;;;;5102457;28;20494;-75
2023/12/10 07:29:39;;;;;;;21.38;4.82;;;9.90;99.90;;;;;;5091212;28;20491;-74
2023/12/10 07:32:05;;;;;;;21.67;4.20;;;9.80;99.90;;;;;;5095987;28;20031;-74
2023/12/10 07:34:30;;;;;;;22.42;4.47;;;9.80;99.90;;;;;;5098634;28;20032;-74
2023/12/10 07:36:56;;;;;;;29.38;6.05;;;9.80;99.90;;;;;;5090742;28;20036;-75
2023/12/10 07:39:22;;;;;;;19.90;4.93;;;9.80;99.90;;;;;;5100775;28;20454;-75
2023/12/10 07:41:47;;;;;;;17.70;4.15;;;9.80;99.90;;;;;;5100419;28;20020;-74
2023/12/10 07:44:13;;;;;;;25.63;5.40;;;9.80;99.90;;;;;;5095755;28;20575;-74
2023/12/10 07:46:39;;;;;;;20.25;4.65;;;9.80;99.90;;;;;;5097094;28;20024;-74
2023/12/10 07:49:04;;;;;;;23.23;5.00;;;9.80;99.90;;;;;;5099306;28;20059;-73
2023/12/10 07:51:30;;;;;;;21.75;5.35;;;9.80;99.90;;;;;;5104186;28;20031;-74
2023/12/10 07:53:55;;;;;;;22.88;4.60;;;9.90;99.90;;;;;;5101855;28;20092;-74
2023/12/10 07:56:21;;;;;;;28.73;5.18;;;9.80;99.90;;;;;;5100069;28;20027;-74
2023/12/10 07:58:46;;;;;;;25.20;4.30;;;9.90;99.90;;;;;;5095861;28;20024;-73
2023/12/10 08:01:12;;;;;;;23.33;4.18;;;9.80;99.90;;;;;;5094390;28;20114;-74
2023/12/10 08:03:38;;;;;;;21.60;4.00;;;9.90;99.90;;;;;;5094441;28;20031;-74
2023/12/10 08:06:03;;;;;;;19.55;4.22;;;9.80;99.90;;;;;;5084225;28;20033;-74
2023/12/10 08:08:29;;;;;;;27.08;5.15;;;9.80;99.90;;;;;;5084678;28;20055;-73
2023/12/10 08:10:55;;;;;;;23.80;4.05;;;9.80;99.90;;;;;;5092291;28;20035;-73
2023/12/10 08:13:20;;;;;;;33.03;7.13;;;9.80;99.90;;;;;;5093776;28;20386;-74
2023/12/10 08:15:46;;;;;;;26.75;4.18;;;9.90;99.90;;;;;;5092513;28;20045;-74
2023/12/10 08:18:12;;;;;;;27.10;3.75;;;9.80;99.90;;;;;;5095351;28;20020;-73
2023/12/10 08:20:38;;;;;;;31.05;4.70;;;9.90;99.90;;;;;;5085128;28;20103;-73
2023/12/10 08:23:03;;;;;;;27.92;6.63;;;9.80;99.90;;;;;;5094521;28;20067;-73
2023/12/10 08:25:29;;;;;;;24.37;4.27;;;9.80;99.90;;;;;;5103091;28;20077;-74
2023/12/10 08:27:55;;;;;;;19.80;3.30;;;9.80;99.90;;;;;;5097975;28;20052;-74
2023/12/10 08:30:20;;;;;;;27.20;5.28;;;9.80;99.90;;;;;;5105429;28;20046;-74
2023/12/10 08:32:46;;;;;;;23.55;4.88;;;9.90;99.90;;;;;;5099414;28;20394;-74
2023/12/10 08:35:12;;;;;;;21.90;3.50;;;9.90;99.90;;;;;;5095813;28;20051;-74
2023/12/10 08:37:38;;;;;;;22.45;4.43;;;9.90;99.90;;;;;;5092082;28;20012;-74
2023/12/10 08:40:05;;;;;;;31.05;4.53;;;9.90;99.90;;;;;;5101181;28;20075;-73
2023/12/10 08:42:31;;;;;;;26.02;4.80;;;9.90;99.90;;;;;;5101200;28;20031;-73
2023/12/10 08:44:59;;;;;;;18.30;4.00;;;9.90;99.90;;;;;;5103343;28;20547;-74
2023/12/10 08:47:25;;;;;;;20.23;4.47;;;9.90;99.90;;;;;;5100533;28;20110;-74
2023/12/10 08:49:51;;;;;;;22.85;4.28;;;9.90;99.90;;;;;;5101824;28;20110;-74
2023/12/10 08:52:17;;;;;;;18.77;4.15;;;9.90;99.90;;;;;;5102140;28;20131;-74
2023/12/10 08:54:42;;;;;;;26.88;5.47;;;9.90;99.90;;;;;;5099644;28;20545;-74
2023/12/10 08:57:08;;;;;;;20.98;4.85;;;9.90;99.90;;;;;;5100588;28;20114;-74
2023/12/10 08:59:34;;;;;;;22.63;4.32;;;9.90;99.90;;;;;;5097189;28;20475;-74
2023/12/10 09:01:59;;;;;;;19.33;4.00;;;9.90;99.90;;;;;;5088321;28;20091;-74
2023/12/10 09:04:25;;;;;;;17.42;3.70;;;9.90;99.90;;;;;;5092285;28;20085;-74
2023/12/10 09:06:51;;;;;;;27.10;4.55;;;10.00;99.90;;;;;;5094510;28;20020;-74
2023/12/10 09:09:16;;;;;;;25.98;5.07;;;10.00;99.90;;;;;;5098270;28;20040;-72
2023/12/10 09:11:42;;;;;;;32.75;5.18;;;10.00;99.90;;;;;;5098703;28;20113;-72
2023/12/10 09:14:10;;;;;;;27.73;4.70;;;10.00;99.90;;;;;;5094369;28;20016;-72
2023/12/10 09:16:36;;;;;;;16.48;4.07;;;10.00;99.90;;;;;;5097399;28;20021;-72
2023/12/10 09:19:02;;;;;;;25.42;4.30;;;10.00;99.90;;;;;;5095345;28;20031;-72
2023/12/10 09:21:27;;;;;;;24.85;4.38;;;10.00;99.90;;;;;;5099978;28;20023;-72
2023/12/10 09:23:53;;;;;;;23.88;4.35;;;10.00;99.90;;;;;;5095077;28;20028;-71
2023/12/10 09:26:19;;;;;;;18.23;3.92;;;10.10;99.90;;;;;;5100103;28;20435;-72
2023/12/10 09:28:45;;;;;;;25.88;4.18;;;10.10;99.90;;;;;;5096873;28;20036;-72
2023/12/10 09:31:11;;;;;;;26.52;4.43;;;10.10;99.90;;;;;;5099364;28;20402;-72
2023/12/10 09:33:36;;;;;;;26.42;4.28;;;10.10;99.90;;;;;;5093975;28;20027;-72
2023/12/10 09:36:02;;;;;;;20.40;3.13;;;10.20;99.90;;;;;;5092385;28;20097;-73
2023/12/10 09:38:28;;;;;;;22.38;4.80;;;10.20;99.90;;;;;;5095203;28;20032;-72
2023/12/10 09:40:53;;;;;;;22.15;5.80;;;10.10;99.90;;;;;;5102268;28;20486;-72
2023/12/10 09:43:19;;;;;;;18.02;3.80;;;10.10;99.90;;;;;;5098423;28;20118;-72
2023/12/10 09:45:44;;;;;;;24.02;3.85;;;10.20;99.90;;;;;;5101567;28;20067;-72
2023/12/10 09:48:11;;;;;;;16.85;3.00;;;10.20;99.90;;;;;;5095993;28;20053;-72
2023/12/10 09:50:38;;;;;;;26.70;5.25;;;10.20;99.90;;;;;;5094265;28;20027;-72
2023/12/10 09:53:05;;;;;;;20.02;3.63;;;10.30;99.90;;;;;;5097712;28;20024;-71
2023/12/10 09:55:31;;;;;;;25.00;3.42;;;10.30;99.90;;;;;;5097307;28;20016;-71
2023/12/10 09:57:56;;;;;;;19.75;3.35;;;10.30;99.90;;;;;;5091589;28;20036;-72
2023/12/10 10:00:22;;;;;;;20.27;3.00;;;10.30;99.90;;;;;;5092419;28;20031;-72
2023/12/10 10:02:47;;;;;;;15.38;3.28;;;10.30;99.90;;;;;;5086030;28;20033;-72
2023/12/10 10:05:13;;;;;;;22.00;4.00;;;10.30;99.90;;;;;;5093279;28;20032;-72
2023/12/10 10:07:38;;;;;;;20.42;3.13;;;10.30;99.90;;;;;;5103059;28;20027;-73
2023/12/10 10:10:10;;;;;;;16.67;2.65;;;10.30;99.90;;;;;;5101514;28;20024;-73
2023/12/10 10:12:36;;;;;;;21.75;3.20;;;10.40;99.90;;;;;;5100908;28;20053;-73
2023/12/10 10:15:03;;;;;;;17.02;2.80;;;10.40;99.90;;;;;;5099942;28;20066;-72
2023/12/10 10:17:31;;;;;;;18.05;3.33;;;10.40;99.90;;;;;;5098929;28;20020;-71
2023/12/10 10:19:57;;;;;;;16.23;3.42;;;10.40;99.90;;;;;;5099389;28;20024;-72
2023/12/10 10:22:24;;;;;;;19.58;4.07;;;10.40;99.90;;;;;;5093144;28;20028;-72
2023/12/10 10:24:51;;;;;;;21.23;3.70;;;10.40;99.90;;;;;;5100173;28;20073;-71
2023/12/10 10:27:18;;;;;;;25.05;4.95;;;10.40;99.90;;;;;;5100794;28;20055;-71
2023/12/10 10:29:44;;;;;;;18.10;2.90;;;10.40;99.90;;;;;;5096775;28;20119;-70
2023/12/10 10:32:16;;;;;;;20.73;3.47;;;10.50;99.90;;;;;;5096503;28;20043;-70
2023/12/10 10:34:50;;;;;;;22.10;3.33;;;10.50;99.90;;;;;;5100576;28;20387;-70
2023/12/10 10:37:17;;;;;;;25.35;4.30;;;10.50;99.90;;;;;;5100326;28;20028;-70
2023/12/10 10:39:44;;;;;;;19.95;4.28;;;10.50;99.90;;;;;;5097411;28;20432;-70
2023/12/10 10:42:10;;;;;;;24.90;4.35;;;10.60;99.90;;;;;;5097320;28;20471;-71
2023/12/10 10:44:37;;;;;;;15.75;2.63;;;10.60;99.90;;;;;;5101899;28;20073;-70
2023/12/10 10:47:05;;;;;;;30.25;4.45;;;10.60;99.90;;;;;;5098274;28;20020;-71
2023/12/10 10:49:32;;;;;;;22.45;4.55;;;10.60;99.90;;;;;;5100984;28;20023;-71
2023/12/10 10:52:01;;;;;;;23.70;3.90;;;10.60;99.90;;;;;;5098356;28;20049;-71
2023/12/10 10:54:27;;;;;;;18.67;3.30;;;10.60;99.90;;;;;;5093703;28;20024;-71
2023/12/10 10:56:53;;;;;;;23.65;4.13;;;10.60;99.90;;;;;;5097384;28;20045;-71
2023/12/10 10:59:30;;;;;;;20.15;2.97;;;10.60;99.90;;;;;;5090192;28;20020;-71
2023/12/10 11:01:58;;;;;;;18.08;3.70;;;10.70;99.90;;;;;;5091942;28;20114;-71
2023/12/10 11:04:24;;;;;;;18.40;3.67;;;10.70;99.90;;;;;;5097262;28;20024;-70
2023/12/10 11:06:53;;;;;;;20.60;4.38;;;10.70;99.90;;;;;;5087880;28;20020;-70
2023/12/10 11:09:19;;;;;;;16.58;2.95;;;10.70;99.90;;;;;;5092215;28;20099;-70
2023/12/10 11:11:44;;;;;;;18.05;4.63;;;10.80;99.90;;;;;;5096231;28;20452;-70
2023/12/10 11:14:21;;;;;;;24.05;3.78;;;10.80;99.90;;;;;;5099485;28;20076;-70
2023/12/10 11:17:02;;;;;;;18.27;3.70;;;10.90;99.90;;;;;;5093621;28;20020;-70
2023/12/10 11:19:32;;;;;;;24.08;4.10;;;10.90;99.90;;;;;;5101495;28;20511;-70
2023/12/10 11:21:59;;;;;;;19.40;3.42;;;11.00;99.90;;;;;;5096553;28;20059;-70
2023/12/10 11:24:25;;;;;;;23.58;4.28;;;11.00;99.90;;;;;;5093750;28;20107;-70
2023/12/10 11:26:50;;;;;;;21.95;4.22;;;11.00;99.90;;;;;;5095191;28;20168;-71
2023/12/10 11:29:16;;;;;;;27.02;5.35;;;11.00;99.90;;;;;;5093997;28;20047;-71
2023/12/10 11:31:45;;;;;;;18.40;4.35;;;10.90;99.90;;;;;;5095298;28;20016;-70
2023/12/10 11:34:10;;;;;;;24.15;4.53;;;10.90;99.90;;;;;;5097109;28;20016;-70
2023/12/10 11:36:36;;;;;;;19.70;4.35;;;10.90;99.90;;;;;;5100828;28;20028;-70
2023/12/10 11:39:02;;;;;;;17.33;3.08;;;10.90;99.90;;;;;;5099181;28;20032;-70
2023/12/10 11:41:28;;;;;;;23.75;4.15;;;10.90;99.90;;;;;;5101261;28;20672;-70
2023/12/10 11:43:53;;;;;;;19.35;3.65;;;11.00;99.90;;;;;;5097851;28;20099;-70
2023/12/10 11:46:23;;;;;;;21.13;3.38;;;11.10;99.90;;;;;;5097615;28;20122;-71
2023/12/10 11:48:54;;;;;;;24.50;4.68;;;11.10;99.90;;;;;;5098094;28;20024;-71
2023/12/10 11:51:20;;;;;;;21.45;3.83;;;11.20;99.90;;;;;;5092658;28;20031;-71
2023/12/10 11:53:46;;;;;;;21.77;4.82;;;11.10;99.90;;;;;;5100695;28;20107;-71
2023/12/10 11:56:12;;;;;;;17.88;3.65;;;11.10;99.90;;;;;;5096641;28;20390;-71
2023/12/10 11:58:38;;;;;;;22.58;3.35;;;11.10;99.90;;;;;;5092797;28;20024;-71
2023/12/10 12:01:04;;;;;;;19.73;3.25;;;11.00;99.90;;;;;;5086661;28;20535;-70
2023/12/10 12:03:31;;;;;;;17.40;2.72;;;11.00;99.90;;;;;;5096610;28;20482;-70
2023/12/10 12:05:57;;;;;;;19.35;3.75;;;10.90;99.90;;;;;;5098181;28;20031;-70
2023/12/10 12:08:27;;;;;;;19.50;3.35;;;10.90;99.90;;;;;;5095864;28;20020;-70
2023/12/10 12:10:57;;;;;;;18.58;2.72;;;10.80;99.90;;;;;;5097761;28;20023;-70
2023/12/10 12:13:23;;;;;;;21.65;3.70;;;10.80;99.90;;;;;;5090587;28;20021;-71
2023/12/10 12:15:50;;;;;;;18.42;3.85;;;10.80;99.90;;;;;;5095967;28;20050;-70
2023/12/10 12:18:16;;;;;;;16.60;2.58;;;10.80;99.90;;;;;;5093183;28;20028;-70
2023/12/10 12:20:42;;;;;;;15.48;2.35;;;10.90;99.90;;;;;;5092153;28;20019;-70
2023/12/10 12:23:07;;;;;;;16.42;2.95;;;11.00;99.90;;;;;;5096310;28;20033;-70
2023/12/10 12:25:37;;;;;;;18.75;3.30;;;11.10;99.90;;;;;;5098289;28;20116;-70
2023/12/10 12:28:07;;;;;;;20.20;2.78;;;11.10;99.90;;;;;;5092211;28;20399;-70
2023/12/10 12:30:37;;;;;;;17.88;2.40;;;11.20;99.90;;;;;;5090982;28;20065;-70
2023/12/10 12:33:03;;;;;;;17.00;3.67;;;11.20;99.90;;;;;;5092277;28;20055;-70
2023/12/10 12:35:29;;;;;;;20.58;3.25;;;11.20;99.90;;;;;;5099475;28;20439;-70
2023/12/10 12:37:55;;;;;;;13.13;2.88;;;11.30;99.90;;;;;;5092625;28;20403;-70